Aérodrome :
LOGIN :

S'inscrire | Disclaimer

   EN    FR    IT 

 










Légende :    VFR   VFR Marginal   IFR   IFR Intensif   IFR Très Intensif
Visi : 
Plafond : 
>= 8 km
>= 3000ft
5 à 8 km
1000 à 3000 ft
1500m à 5 km
500 à 1000 ft
800 à 1500m
200 à 500 ft
< 800m
< 200 ft
Symboles :   Orages  Brouillard  Fortes neiges  Fortes précipitations  Vent > 20 kt
SIGMETs :   Divers  Orages  Givrage  Turbulence  Onde Orograph.  Cendres Volcan.







- Altitude de l'aérodrome : 160 ft
- Code IATA : LRT
- Voir les cartes d'approche


LFRH - Lorient Lann Bihoue

DERNIER METAR :
  • 162000Z AUTO 28007KT CAVOK 08/06 Q1010 NOSIG

METARs EXPIRÉS :
  • 161930Z AUTO 27006KT 9999 FEW036 OVC100 08/07 Q1010 NOSIG
  • 161900Z AUTO 28006KT 9999 FEW033 BKN047 BKN096 08/07 Q1010 NOSIG
  • 161830Z AUTO 28005KT 9999 FEW044 SCT068 OVC084 08/07 Q1010 NOSIG
  • 161800Z AUTO 30008KT 270V330 9999 -RA FEW019 BKN052 OVC062 08/07 Q1009 NOSIG
  • 161730Z AUTO 31009KT 9999 FEW013 BKN033 OVC039 09/07 Q1009 NOSIG

TAF TAF LFRH
Valide du 16 à 18h jusqu'au 17 à 18h UTC


161700Z 1618/1718 30012KT 9999 SCT025 SCT050
BECMG 1619/1621 27008KT
TEMPO 1622/1705 4000 SHRA BKN015TCU BKN020
PROB30
TEMPO 1709/1712 SHRA
BECMG 1711/1713 35012G22KT
BECMG 1715/1717 CAVOK
Pas de NOTAMs connus pour ce terrain.



MET'MAP, la Météo Aéronautique d'un coup d'oeil ! - Copyright ORBIFLY Décembre 2007 - Disclaimer

ORBIFLY MET'MAP TEAM :

Programmation & Développement : Alexandra Zaïnal
Conception & Développement : Baudouin d'Aumeries
Co-Programmation & Développement : Marc-Olivier Méhu
Soutien technique & logistique : Manuel Goepfert

Contact : metmap@orbifly.com




SOURCES & CREDITS :

   NOAA